sensor_id;sensor_type;location;lat;lon;timestamp;P1;durP1;ratioP1;P2;durP2;ratioP2
52318;SDS011;38258;51.148;14.068;2024-01-11T00:01:33;12.52;;;7.22;;
52318;SDS011;38258;51.148;14.068;2024-01-11T00:04:01;11.75;;;5.78;;
52318;SDS011;38258;51.148;14.068;2024-01-11T00:06:28;12.65;;;6.60;;
52318;SDS011;38258;51.148;14.068;2024-01-11T00:08:55;13.77;;;6.00;;
52318;SDS011;38258;51.148;14.068;2024-01-11T00:11:21;12.30;;;6.47;;
52318;SDS011;38258;51.148;14.068;2024-01-11T00:13:48;10.52;;;5.95;;
52318;SDS011;38258;51.148;14.068;2024-01-11T00:16:14;7.63;;;4.95;;
52318;SDS011;38258;51.148;14.068;2024-01-11T00:18:41;11.80;;;5.47;;
52318;SDS011;38258;51.148;14.068;2024-01-11T00:21:11;11.80;;;6.25;;
52318;SDS011;38258;51.148;14.068;2024-01-11T00:23:38;14.45;;;5.63;;
52318;SDS011;38258;51.148;14.068;2024-01-11T00:26:04;8.57;;;4.80;;
52318;SDS011;38258;51.148;14.068;2024-01-11T00:28:31;10.02;;;4.88;;
52318;SDS011;38258;51.148;14.068;2024-01-11T00:30:57;8.75;;;4.88;;
52318;SDS011;38258;51.148;14.068;2024-01-11T00:33:24;9.43;;;5.60;;
52318;SDS011;38258;51.148;14.068;2024-01-11T00:35:51;10.60;;;5.35;;
52318;SDS011;38258;51.148;14.068;2024-01-11T00:38:19;10.98;;;5.55;;
52318;SDS011;38258;51.148;14.068;2024-01-11T00:40:45;9.73;;;5.28;;
52318;SDS011;38258;51.148;14.068;2024-01-11T00:43:12;9.90;;;4.53;;
52318;SDS011;38258;51.148;14.068;2024-01-11T00:45:39;11.98;;;5.43;;
52318;SDS011;38258;51.148;14.068;2024-01-11T00:48:05;10.00;;;5.38;;
52318;SDS011;38258;51.148;14.068;2024-01-11T00:50:32;8.02;;;3.97;;
52318;SDS011;38258;51.148;14.068;2024-01-11T00:52:59;11.85;;;4.60;;
52318;SDS011;38258;51.148;14.068;2024-01-11T00:55:27;9.43;;;4.85;;
52318;SDS011;38258;51.148;14.068;2024-01-11T00:57:54;7.93;;;5.32;;
52318;SDS011;38258;51.148;14.068;2024-01-11T01:00:21;9.40;;;5.05;;
52318;SDS011;38258;51.148;14.068;2024-01-11T01:02:47;10.57;;;4.57;;
52318;SDS011;38258;51.148;14.068;2024-01-11T01:05:14;9.00;;;3.83;;
52318;SDS011;38258;51.148;14.068;2024-01-11T01:07:40;9.32;;;4.70;;
52318;SDS011;38258;51.148;14.068;2024-01-11T01:10:07;10.13;;;5.82;;
52318;SDS011;38258;51.148;14.068;2024-01-11T01:12:36;11.60;;;5.38;;
52318;SDS011;38258;51.148;14.068;2024-01-11T01:15:02;12.18;;;5.00;;
52318;SDS011;38258;51.148;14.068;2024-01-11T01:17:30;10.02;;;5.30;;
52318;SDS011;38258;51.148;14.068;2024-01-11T01:19:56;10.98;;;4.57;;
52318;SDS011;38258;51.148;14.068;2024-01-11T01:22:23;10.93;;;5.40;;
52318;SDS011;38258;51.148;14.068;2024-01-11T01:24:50;12.15;;;5.43;;
52318;SDS011;38258;51.148;14.068;2024-01-11T01:27:16;13.93;;;5.07;;
52318;SDS011;38258;51.148;14.068;2024-01-11T01:29:44;12.00;;;4.97;;
52318;SDS011;38258;51.148;14.068;2024-01-11T01:32:11;14.07;;;5.85;;
52318;SDS011;38258;51.148;14.068;2024-01-11T01:34:37;10.60;;;5.47;;
52318;SDS011;38258;51.148;14.068;2024-01-11T01:37:04;11.20;;;5.07;;
52318;SDS011;38258;51.148;14.068;2024-01-11T01:39:31;12.50;;;5.78;;
52318;SDS011;38258;51.148;14.068;2024-01-11T01:41:57;10.00;;;4.85;;
52318;SDS011;38258;51.148;14.068;2024-01-11T01:44:24;11.73;;;5.22;;
52318;SDS011;38258;51.148;14.068;2024-01-11T01:46:52;11.18;;;4.97;;
52318;SDS011;38258;51.148;14.068;2024-01-11T01:49:19;12.07;;;5.38;;
52318;SDS011;38258;51.148;14.068;2024-01-11T01:51:47;9.93;;;4.80;;
52318;SDS011;38258;51.148;14.068;2024-01-11T01:54:14;9.95;;;5.45;;
52318;SDS011;38258;51.148;14.068;2024-01-11T01:56:41;12.20;;;4.97;;
52318;SDS011;38258;51.148;14.068;2024-01-11T01:59:08;10.23;;;5.03;;
52318;SDS011;38258;51.148;14.068;2024-01-11T02:01:35;10.48;;;5.38;;
52318;SDS011;38258;51.148;14.068;2024-01-11T02:04:04;12.30;;;6.05;;
52318;SDS011;38258;51.148;14.068;2024-01-11T02:06:30;12.02;;;6.38;;
52318;SDS011;38258;51.148;14.068;2024-01-11T02:09:00;13.25;;;5.88;;
52318;SDS011;38258;51.148;14.068;2024-01-11T02:11:28;16.73;;;7.90;;
52318;SDS011;38258;51.148;14.068;2024-01-11T02:13:55;18.08;;;7.85;;
52318;SDS011;38258;51.148;14.068;2024-01-11T02:16:22;13.20;;;6.18;;
52318;SDS011;38258;51.148;14.068;2024-01-11T02:18:49;15.73;;;6.57;;
52318;SDS011;38258;51.148;14.068;2024-01-11T02:21:17;11.40;;;6.35;;
52318;SDS011;38258;51.148;14.068;2024-01-11T02:23:44;12.05;;;6.78;;
52318;SDS011;38258;51.148;14.068;2024-01-11T02:26:13;15.43;;;6.97;;
52318;SDS011;38258;51.148;14.068;2024-01-11T02:28:43;17.00;;;5.97;;
52318;SDS011;38258;51.148;14.068;2024-01-11T02:31:10;10.15;;;5.85;;
52318;SDS011;38258;51.148;14.068;2024-01-11T02:33:37;10.63;;;5.45;;
52318;SDS011;38258;51.148;14.068;2024-01-11T02:36:05;9.38;;;5.05;;
52318;SDS011;38258;51.148;14.068;2024-01-11T02:38:32;15.05;;;6.85;;
52318;SDS011;38258;51.148;14.068;2024-01-11T02:40:59;14.40;;;6.28;;
52318;SDS011;38258;51.148;14.068;2024-01-11T02:43:27;12.35;;;5.00;;
52318;SDS011;38258;51.148;14.068;2024-01-11T02:45:54;9.63;;;4.85;;
52318;SDS011;38258;51.148;14.068;2024-01-11T02:48:20;12.32;;;6.20;;
52318;SDS011;38258;51.148;14.068;2024-01-11T02:50:47;12.82;;;6.20;;
52318;SDS011;38258;51.148;14.068;2024-01-11T02:53:14;13.50;;;5.82;;
52318;SDS011;38258;51.148;14.068;2024-01-11T02:55:41;12.23;;;5.28;;
52318;SDS011;38258;51.148;14.068;2024-01-11T02:58:07;9.95;;;4.75;;
52318;SDS011;38258;51.148;14.068;2024-01-11T03:00:35;10.68;;;5.07;;
52318;SDS011;38258;51.148;14.068;2024-01-11T03:03:02;10.30;;;6.15;;
52318;SDS011;38258;51.148;14.068;2024-01-11T03:05:29;10.32;;;4.88;;
52318;SDS011;38258;51.148;14.068;2024-01-11T03:07:56;10.13;;;4.65;;
52318;SDS011;38258;51.148;14.068;2024-01-11T03:10:22;12.55;;;5.47;;
52318;SDS011;38258;51.148;14.068;2024-01-11T03:12:50;13.27;;;5.97;;
52318;SDS011;38258;51.148;14.068;2024-01-11T03:15:16;7.65;;;4.75;;
52318;SDS011;38258;51.148;14.068;2024-01-11T03:17:44;11.60;;;5.40;;
52318;SDS011;38258;51.148;14.068;2024-01-11T03:20:11;10.43;;;4.97;;
52318;SDS011;38258;51.148;14.068;2024-01-11T03:22:44;9.93;;;5.20;;
52318;SDS011;38258;51.148;14.068;2024-01-11T03:25:11;13.30;;;5.38;;
52318;SDS011;38258;51.148;14.068;2024-01-11T03:27:38;10.75;;;5.35;;
52318;SDS011;38258;51.148;14.068;2024-01-11T03:30:05;9.32;;;4.40;;
52318;SDS011;38258;51.148;14.068;2024-01-11T03:32:32;15.43;;;5.40;;
52318;SDS011;38258;51.148;14.068;2024-01-11T03:35:00;10.38;;;5.45;;
52318;SDS011;38258;51.148;14.068;2024-01-11T03:37:27;9.52;;;5.63;;
52318;SDS011;38258;51.148;14.068;2024-01-11T03:39:54;12.75;;;5.18;;
52318;SDS011;38258;51.148;14.068;2024-01-11T03:42:20;11.73;;;5.45;;
52318;SDS011;38258;51.148;14.068;2024-01-11T03:44:47;16.80;;;6.10;;
52318;SDS011;38258;51.148;14.068;2024-01-11T03:47:14;13.25;;;5.32;;
52318;SDS011;38258;51.148;14.068;2024-01-11T03:49:41;12.25;;;4.93;;
52318;SDS011;38258;51.148;14.068;2024-01-11T03:52:08;14.23;;;5.63;;
52318;SDS011;38258;51.148;14.068;2024-01-11T03:54:35;11.13;;;5.15;;
52318;SDS011;38258;51.148;14.068;2024-01-11T03:57:02;11.02;;;5.78;;
52318;SDS011;38258;51.148;14.068;2024-01-11T03:59:29;12.65;;;5.63;;
52318;SDS011;38258;51.148;14.068;2024-01-11T04:01:55;10.98;;;5.68;;
52318;SDS011;38258;51.148;14.068;2024-01-11T04:04:23;9.88;;;5.45;;
52318;SDS011;38258;51.148;14.068;2024-01-11T04:06:50;12.27;;;5.85;;
52318;SDS011;38258;51.148;14.068;2024-01-11T04:09:18;11.90;;;5.22;;
52318;SDS011;38258;51.148;14.068;2024-01-11T04:11:45;9.70;;;5.53;;
52318;SDS011;38258;51.148;14.068;2024-01-11T04:14:12;10.25;;;5.90;;
52318;SDS011;38258;51.148;14.068;2024-01-11T04:16:39;12.10;;;6.40;;
52318;SDS011;38258;51.148;14.068;2024-01-11T04:19:06;10.15;;;6.30;;
52318;SDS011;38258;51.148;14.068;2024-01-11T04:21:33;14.07;;;6.05;;
52318;SDS011;38258;51.148;14.068;2024-01-11T04:24:00;11.07;;;6.28;;
52318;SDS011;38258;51.148;14.068;2024-01-11T04:26:28;13.15;;;5.53;;
52318;SDS011;38258;51.148;14.068;2024-01-11T04:28:54;10.00;;;4.95;;
52318;SDS011;38258;51.148;14.068;2024-01-11T04:31:23;13.68;;;6.13;;
52318;SDS011;38258;51.148;14.068;2024-01-11T04:33:49;11.18;;;5.25;;
52318;SDS011;38258;51.148;14.068;2024-01-11T04:36:16;11.82;;;6.05;;
52318;SDS011;38258;51.148;14.068;2024-01-11T04:38:43;13.45;;;6.47;;
52318;SDS011;38258;51.148;14.068;2024-01-11T04:41:11;19.77;;;6.57;;
52318;SDS011;38258;51.148;14.068;2024-01-11T04:43:40;14.40;;;6.28;;
52318;SDS011;38258;51.148;14.068;2024-01-11T04:46:15;9.93;;;5.65;;
52318;SDS011;38258;51.148;14.068;2024-01-11T04:48:42;13.02;;;6.65;;
52318;SDS011;38258;51.148;14.068;2024-01-11T04:51:08;15.50;;;6.43;;
52318;SDS011;38258;51.148;14.068;2024-01-11T04:53:38;13.80;;;7.10;;
52318;SDS011;38258;51.148;14.068;2024-01-11T04:56:06;13.00;;;6.22;;
52318;SDS011;38258;51.148;14.068;2024-01-11T04:58:33;13.65;;;7.15;;
52318;SDS011;38258;51.148;14.068;2024-01-11T05:01:01;13.85;;;6.22;;
52318;SDS011;38258;51.148;14.068;2024-01-11T05:03:28;13.07;;;6.90;;
52318;SDS011;38258;51.148;14.068;2024-01-11T05:05:55;13.25;;;7.07;;
52318;SDS011;38258;51.148;14.068;2024-01-11T05:08:22;16.15;;;6.20;;
52318;SDS011;38258;51.148;14.068;2024-01-11T05:10:49;15.43;;;8.15;;
52318;SDS011;38258;51.148;14.068;2024-01-11T05:13:15;12.63;;;6.10;;
52318;SDS011;38258;51.148;14.068;2024-01-11T05:15:42;14.25;;;6.50;;
52318;SDS011;38258;51.148;14.068;2024-01-11T05:18:10;12.50;;;7.13;;
52318;SDS011;38258;51.148;14.068;2024-01-11T05:20:37;9.55;;;6.15;;
52318;SDS011;38258;51.148;14.068;2024-01-11T05:23:04;17.17;;;8.02;;
52318;SDS011;38258;51.148;14.068;2024-01-11T05:25:31;11.00;;;6.85;;
52318;SDS011;38258;51.148;14.068;2024-01-11T05:27:58;18.70;;;8.98;;
52318;SDS011;38258;51.148;14.068;2024-01-11T05:30:25;17.27;;;7.75;;
52318;SDS011;38258;51.148;14.068;2024-01-11T05:32:52;15.23;;;7.32;;
52318;SDS011;38258;51.148;14.068;2024-01-11T05:35:24;17.88;;;7.28;;
52318;SDS011;38258;51.148;14.068;2024-01-11T05:37:52;15.85;;;8.57;;
52318;SDS011;38258;51.148;14.068;2024-01-11T05:40:20;18.90;;;8.85;;
52318;SDS011;38258;51.148;14.068;2024-01-11T05:42:46;15.73;;;8.57;;
52318;SDS011;38258;51.148;14.068;2024-01-11T05:45:13;14.68;;;8.27;;
52318;SDS011;38258;51.148;14.068;2024-01-11T05:47:42;13.80;;;7.65;;
52318;SDS011;38258;51.148;14.068;2024-01-11T05:50:09;13.82;;;7.40;;
52318;SDS011;38258;51.148;14.068;2024-01-11T05:52:37;17.00;;;8.40;;
52318;SDS011;38258;51.148;14.068;2024-01-11T05:55:04;19.17;;;8.90;;
52318;SDS011;38258;51.148;14.068;2024-01-11T05:57:31;16.38;;;8.27;;
52318;SDS011;38258;51.148;14.068;2024-01-11T05:59:58;22.95;;;9.30;;
52318;SDS011;38258;51.148;14.068;2024-01-11T06:02:24;23.33;;;9.57;;
52318;SDS011;38258;51.148;14.068;2024-01-11T06:04:51;19.75;;;9.80;;
52318;SDS011;38258;51.148;14.068;2024-01-11T06:07:17;23.27;;;9.77;;
52318;SDS011;38258;51.148;14.068;2024-01-11T06:09:45;23.20;;;10.60;;
52318;SDS011;38258;51.148;14.068;2024-01-11T06:12:12;22.92;;;10.35;;
52318;SDS011;38258;51.148;14.068;2024-01-11T06:14:39;25.40;;;10.73;;
52318;SDS011;38258;51.148;14.068;2024-01-11T06:17:05;21.45;;;9.70;;
52318;SDS011;38258;51.148;14.068;2024-01-11T06:19:36;18.55;;;9.93;;
52318;SDS011;38258;51.148;14.068;2024-01-11T06:22:02;25.45;;;10.70;;
52318;SDS011;38258;51.148;14.068;2024-01-11T06:24:29;22.95;;;10.30;;
52318;SDS011;38258;51.148;14.068;2024-01-11T06:26:57;20.92;;;9.93;;
52318;SDS011;38258;51.148;14.068;2024-01-11T06:29:24;20.80;;;10.13;;
52318;SDS011;38258;51.148;14.068;2024-01-11T06:31:50;22.05;;;10.63;;
52318;SDS011;38258;51.148;14.068;2024-01-11T06:34:17;19.88;;;10.40;;
52318;SDS011;38258;51.148;14.068;2024-01-11T06:36:43;20.33;;;10.35;;
52318;SDS011;38258;51.148;14.068;2024-01-11T06:39:10;23.00;;;11.45;;
52318;SDS011;38258;51.148;14.068;2024-01-11T06:41:37;19.70;;;10.20;;
52318;SDS011;38258;51.148;14.068;2024-01-11T06:44:05;20.98;;;10.00;;
52318;SDS011;38258;51.148;14.068;2024-01-11T06:46:32;18.15;;;9.57;;
52318;SDS011;38258;51.148;14.068;2024-01-11T06:49:01;19.05;;;10.25;;
52318;SDS011;38258;51.148;14.068;2024-01-11T06:51:28;26.60;;;10.02;;
52318;SDS011;38258;51.148;14.068;2024-01-11T06:53:54;27.58;;;10.93;;
52318;SDS011;38258;51.148;14.068;2024-01-11T06:56:21;27.73;;;12.15;;
52318;SDS011;38258;51.148;14.068;2024-01-11T06:58:48;21.83;;;11.50;;
52318;SDS011;38258;51.148;14.068;2024-01-11T07:01:16;25.52;;;13.70;;
52318;SDS011;38258;51.148;14.068;2024-01-11T07:03:43;39.10;;;16.65;;
52318;SDS011;38258;51.148;14.068;2024-01-11T07:06:10;35.22;;;14.93;;
52318;SDS011;38258;51.148;14.068;2024-01-11T07:08:37;33.33;;;17.13;;
52318;SDS011;38258;51.148;14.068;2024-01-11T07:11:03;37.58;;;16.40;;
52318;SDS011;38258;51.148;14.068;2024-01-11T07:13:30;26.52;;;14.38;;
52318;SDS011;38258;51.148;14.068;2024-01-11T07:15:57;32.22;;;15.32;;
52318;SDS011;38258;51.148;14.068;2024-01-11T07:18:25;37.33;;;14.82;;
52318;SDS011;38258;51.148;14.068;2024-01-11T07:20:52;35.85;;;14.82;;
52318;SDS011;38258;51.148;14.068;2024-01-11T07:23:19;28.85;;;12.70;;
52318;SDS011;38258;51.148;14.068;2024-01-11T07:25:45;34.75;;;14.45;;
52318;SDS011;38258;51.148;14.068;2024-01-11T07:28:12;27.90;;;12.10;;
52318;SDS011;38258;51.148;14.068;2024-01-11T07:30:39;27.52;;;13.70;;
52318;SDS011;38258;51.148;14.068;2024-01-11T07:33:06;32.30;;;14.18;;
52318;SDS011;38258;51.148;14.068;2024-01-11T07:35:34;29.48;;;14.98;;
52318;SDS011;38258;51.148;14.068;2024-01-11T07:38:00;34.90;;;15.18;;
52318;SDS011;38258;51.148;14.068;2024-01-11T07:40:27;28.10;;;13.52;;
52318;SDS011;38258;51.148;14.068;2024-01-11T07:42:54;26.48;;;12.00;;
52318;SDS011;38258;51.148;14.068;2024-01-11T07:45:20;30.27;;;13.30;;
52318;SDS011;38258;51.148;14.068;2024-01-11T07:47:47;34.70;;;14.63;;
52318;SDS011;38258;51.148;14.068;2024-01-11T07:50:14;35.60;;;15.45;;
52318;SDS011;38258;51.148;14.068;2024-01-11T07:52:42;29.58;;;14.25;;
52318;SDS011;38258;51.148;14.068;2024-01-11T07:55:08;38.03;;;14.85;;
52318;SDS011;38258;51.148;14.068;2024-01-11T07:57:37;34.92;;;15.32;;
52318;SDS011;38258;51.148;14.068;2024-01-11T08:00:04;34.13;;;15.30;;
52318;SDS011;38258;51.148;14.068;2024-01-11T08:02:38;33.17;;;13.93;;
52318;SDS011;38258;51.148;14.068;2024-01-11T08:05:05;57.45;;;23.08;;
52318;SDS011;38258;51.148;14.068;2024-01-11T08:07:32;82.95;;;33.95;;
52318;SDS011;38258;51.148;14.068;2024-01-11T08:10:00;80.05;;;29.73;;
52318;SDS011;38258;51.148;14.068;2024-01-11T08:12:29;41.97;;;17.75;;
52318;SDS011;38258;51.148;14.068;2024-01-11T08:14:55;79.97;;;31.98;;
52318;SDS011;38258;51.148;14.068;2024-01-11T08:17:22;52.13;;;20.50;;
52318;SDS011;38258;51.148;14.068;2024-01-11T08:19:48;42.33;;;17.90;;
52318;SDS011;38258;51.148;14.068;2024-01-11T08:22:15;37.83;;;18.00;;
52318;SDS011;38258;51.148;14.068;2024-01-11T08:24:42;38.80;;;16.27;;
52318;SDS011;38258;51.148;14.068;2024-01-11T08:27:10;36.17;;;16.70;;
52318;SDS011;38258;51.148;14.068;2024-01-11T08:29:36;39.70;;;16.60;;
52318;SDS011;38258;51.148;14.068;2024-01-11T08:32:03;39.40;;;17.60;;
52318;SDS011;38258;51.148;14.068;2024-01-11T08:34:30;36.05;;;16.15;;
52318;SDS011;38258;51.148;14.068;2024-01-11T08:36:57;29.98;;;15.48;;
52318;SDS011;38258;51.148;14.068;2024-01-11T08:39:24;40.17;;;17.20;;
52318;SDS011;38258;51.148;14.068;2024-01-11T08:41:50;36.38;;;15.32;;
52318;SDS011;38258;51.148;14.068;2024-01-11T08:44:19;33.47;;;15.70;;
52318;SDS011;38258;51.148;14.068;2024-01-11T08:46:45;45.20;;;19.20;;
52318;SDS011;38258;51.148;14.068;2024-01-11T08:49:12;40.60;;;15.73;;
52318;SDS011;38258;51.148;14.068;2024-01-11T08:51:39;42.80;;;17.67;;
52318;SDS011;38258;51.148;14.068;2024-01-11T08:54:06;45.50;;;18.70;;
52318;SDS011;38258;51.148;14.068;2024-01-11T08:56:34;44.60;;;19.30;;
52318;SDS011;38258;51.148;14.068;2024-01-11T08:59:02;38.85;;;18.10;;
52318;SDS011;38258;51.148;14.068;2024-01-11T09:01:30;51.67;;;20.98;;
52318;SDS011;38258;51.148;14.068;2024-01-11T09:03:57;54.10;;;19.98;;
52318;SDS011;38258;51.148;14.068;2024-01-11T09:06:24;42.33;;;18.30;;
52318;SDS011;38258;51.148;14.068;2024-01-11T09:08:51;47.25;;;17.83;;
52318;SDS011;38258;51.148;14.068;2024-01-11T09:11:17;44.40;;;16.80;;
52318;SDS011;38258;51.148;14.068;2024-01-11T09:13:44;37.05;;;16.40;;
52318;SDS011;38258;51.148;14.068;2024-01-11T09:16:13;49.05;;;19.80;;
52318;SDS011;38258;51.148;14.068;2024-01-11T09:18:42;46.20;;;19.20;;
52318;SDS011;38258;51.148;14.068;2024-01-11T09:21:09;49.10;;;19.58;;
52318;SDS011;38258;51.148;14.068;2024-01-11T09:23:37;41.22;;;19.13;;
52318;SDS011;38258;51.148;14.068;2024-01-11T09:26:04;41.08;;;17.15;;
52318;SDS011;38258;51.148;14.068;2024-01-11T09:28:31;44.67;;;18.30;;
52318;SDS011;38258;51.148;14.068;2024-01-11T09:30:57;40.45;;;18.00;;
52318;SDS011;38258;51.148;14.068;2024-01-11T09:33:27;46.00;;;18.38;;
52318;SDS011;38258;51.148;14.068;2024-01-11T09:35:55;41.78;;;17.00;;
52318;SDS011;38258;51.148;14.068;2024-01-11T09:38:22;33.13;;;16.25;;
52318;SDS011;38258;51.148;14.068;2024-01-11T09:40:48;45.35;;;20.33;;
52318;SDS011;38258;51.148;14.068;2024-01-11T09:43:26;48.20;;;19.35;;
52318;SDS011;38258;51.148;14.068;2024-01-11T09:45:53;42.17;;;17.10;;
52318;SDS011;38258;51.148;14.068;2024-01-11T09:48:21;54.95;;;20.27;;
52318;SDS011;38258;51.148;14.068;2024-01-11T09:50:50;48.70;;;18.33;;
52318;SDS011;38258;51.148;14.068;2024-01-11T09:53:20;42.75;;;17.77;;
52318;SDS011;38258;51.148;14.068;2024-01-11T09:55:49;47.63;;;21.10;;
52318;SDS011;38258;51.148;14.068;2024-01-11T09:58:17;45.95;;;21.25;;
52318;SDS011;38258;51.148;14.068;2024-01-11T10:00:45;48.67;;;21.23;;
52318;SDS011;38258;51.148;14.068;2024-01-11T10:03:15;43.72;;;19.45;;
52318;SDS011;38258;51.148;14.068;2024-01-11T10:05:42;44.65;;;17.85;;
52318;SDS011;38258;51.148;14.068;2024-01-11T10:08:11;51.67;;;20.05;;
52318;SDS011;38258;51.148;14.068;2024-01-11T10:10:39;45.30;;;19.20;;
52318;SDS011;38258;51.148;14.068;2024-01-11T10:13:06;47.35;;;20.20;;
52318;SDS011;38258;51.148;14.068;2024-01-11T10:15:32;47.45;;;20.45;;
52318;SDS011;38258;51.148;14.068;2024-01-11T10:17:59;52.28;;;20.52;;
52318;SDS011;38258;51.148;14.068;2024-01-11T10:20:26;42.92;;;20.02;;
52318;SDS011;38258;51.148;14.068;2024-01-11T10:22:55;46.08;;;20.40;;
52318;SDS011;38258;51.148;14.068;2024-01-11T10:25:23;45.17;;;19.52;;
52318;SDS011;38258;51.148;14.068;2024-01-11T10:27:51;44.75;;;19.60;;
52318;SDS011;38258;51.148;14.068;2024-01-11T10:30:18;41.92;;;19.75;;
52318;SDS011;38258;51.148;14.068;2024-01-11T10:32:47;62.38;;;22.35;;
52318;SDS011;38258;51.148;14.068;2024-01-11T10:35:14;54.92;;;23.15;;
52318;SDS011;38258;51.148;14.068;2024-01-11T10:37:43;44.70;;;20.50;;
52318;SDS011;38258;51.148;14.068;2024-01-11T10:40:10;39.97;;;18.52;;
52318;SDS011;38258;51.148;14.068;2024-01-11T10:42:39;43.42;;;19.17;;
52318;SDS011;38258;51.148;14.068;2024-01-11T10:45:10;50.42;;;21.02;;
52318;SDS011;38258;51.148;14.068;2024-01-11T10:47:42;53.50;;;20.35;;
52318;SDS011;38258;51.148;14.068;2024-01-11T10:50:16;55.13;;;20.80;;
52318;SDS011;38258;51.148;14.068;2024-01-11T10:52:47;48.42;;;20.17;;
52318;SDS011;38258;51.148;14.068;2024-01-11T10:55:22;48.28;;;20.48;;
52318;SDS011;38258;51.148;14.068;2024-01-11T10:57:51;51.35;;;20.08;;
52318;SDS011;38258;51.148;14.068;2024-01-11T11:00:20;53.10;;;20.40;;
52318;SDS011;38258;51.148;14.068;2024-01-11T11:02:48;45.63;;;19.35;;
52318;SDS011;38258;51.148;14.068;2024-01-11T11:05:18;46.42;;;18.38;;
52318;SDS011;38258;51.148;14.068;2024-01-11T11:07:46;48.17;;;19.00;;
52318;SDS011;38258;51.148;14.068;2024-01-11T11:10:14;43.47;;;17.17;;
52318;SDS011;38258;51.148;14.068;2024-01-11T11:12:43;46.03;;;18.52;;
52318;SDS011;38258;51.148;14.068;2024-01-11T11:15:12;50.15;;;19.05;;
52318;SDS011;38258;51.148;14.068;2024-01-11T11:17:40;50.70;;;19.65;;
52318;SDS011;38258;51.148;14.068;2024-01-11T11:20:10;52.72;;;21.63;;
52318;SDS011;38258;51.148;14.068;2024-01-11T11:22:39;47.10;;;19.38;;
52318;SDS011;38258;51.148;14.068;2024-01-11T11:25:08;58.28;;;21.30;;
52318;SDS011;38258;51.148;14.068;2024-01-11T11:27:35;45.20;;;18.98;;
52318;SDS011;38258;51.148;14.068;2024-01-11T11:30:02;39.60;;;16.25;;
52318;SDS011;38258;51.148;14.068;2024-01-11T11:32:34;46.78;;;18.63;;
52318;SDS011;38258;51.148;14.068;2024-01-11T11:35:03;38.08;;;17.23;;
52318;SDS011;38258;51.148;14.068;2024-01-11T11:37:30;43.88;;;18.13;;
52318;SDS011;38258;51.148;14.068;2024-01-11T11:39:57;41.35;;;17.42;;
52318;SDS011;38258;51.148;14.068;2024-01-11T11:42:24;36.00;;;16.80;;
52318;SDS011;38258;51.148;14.068;2024-01-11T11:44:51;40.50;;;17.90;;
52318;SDS011;38258;51.148;14.068;2024-01-11T11:47:18;47.63;;;18.00;;
52318;SDS011;38258;51.148;14.068;2024-01-11T11:50:06;49.40;;;18.73;;
52318;SDS011;38258;51.148;14.068;2024-01-11T11:52:35;52.22;;;18.88;;
52318;SDS011;38258;51.148;14.068;2024-01-11T11:55:03;42.53;;;17.95;;
52318;SDS011;38258;51.148;14.068;2024-01-11T11:57:31;45.83;;;19.90;;
52318;SDS011;38258;51.148;14.068;2024-01-11T11:59:58;56.67;;;19.35;;
52318;SDS011;38258;51.148;14.068;2024-01-11T12:02:25;43.80;;;18.50;;
52318;SDS011;38258;51.148;14.068;2024-01-11T12:04:53;55.20;;;19.63;;
52318;SDS011;38258;51.148;14.068;2024-01-11T12:07:21;47.97;;;18.73;;
52318;SDS011;38258;51.148;14.068;2024-01-11T12:09:48;45.80;;;19.38;;
52318;SDS011;38258;51.148;14.068;2024-01-11T12:12:15;44.42;;;19.15;;
52318;SDS011;38258;51.148;14.068;2024-01-11T12:14:42;48.90;;;19.55;;
52318;SDS011;38258;51.148;14.068;2024-01-11T12:17:09;54.28;;;20.63;;
52318;SDS011;38258;51.148;14.068;2024-01-11T12:19:36;51.97;;;20.02;;
52318;SDS011;38258;51.148;14.068;2024-01-11T12:22:02;47.03;;;19.02;;
52318;SDS011;38258;51.148;14.068;2024-01-11T12:24:31;49.70;;;20.17;;
52318;SDS011;38258;51.148;14.068;2024-01-11T12:26:59;43.35;;;18.35;;
52318;SDS011;38258;51.148;14.068;2024-01-11T12:29:28;54.53;;;20.35;;
52318;SDS011;38258;51.148;14.068;2024-01-11T12:31:55;41.92;;;18.42;;
52318;SDS011;38258;51.148;14.068;2024-01-11T12:34:23;42.90;;;20.02;;
52318;SDS011;38258;51.148;14.068;2024-01-11T12:36:51;45.22;;;18.15;;
52318;SDS011;38258;51.148;14.068;2024-01-11T12:39:18;44.92;;;17.83;;
52318;SDS011;38258;51.148;14.068;2024-01-11T12:41:48;29.20;;;13.32;;
52318;SDS011;38258;51.148;14.068;2024-01-11T12:44:17;44.97;;;18.27;;
52318;SDS011;38258;51.148;14.068;2024-01-11T12:46:47;45.30;;;17.83;;
52318;SDS011;38258;51.148;14.068;2024-01-11T12:49:14;38.70;;;14.88;;
52318;SDS011;38258;51.148;14.068;2024-01-11T12:51:41;43.00;;;18.30;;
52318;SDS011;38258;51.148;14.068;2024-01-11T12:54:10;42.10;;;17.90;;
52318;SDS011;38258;51.148;14.068;2024-01-11T12:56:40;40.80;;;17.52;;
52318;SDS011;38258;51.148;14.068;2024-01-11T12:59:09;39.53;;;16.00;;
52318;SDS011;38258;51.148;14.068;2024-01-11T13:01:37;43.67;;;16.08;;
52318;SDS011;38258;51.148;14.068;2024-01-11T13:04:05;45.10;;;16.77;;
52318;SDS011;38258;51.148;14.068;2024-01-11T13:06:34;38.92;;;16.65;;
52318;SDS011;38258;51.148;14.068;2024-01-11T13:09:01;38.00;;;17.90;;
52318;SDS011;38258;51.148;14.068;2024-01-11T13:11:29;45.00;;;18.02;;
52318;SDS011;38258;51.148;14.068;2024-01-11T13:13:55;39.83;;;16.48;;
52318;SDS011;38258;51.148;14.068;2024-01-11T13:16:25;42.30;;;15.73;;
52318;SDS011;38258;51.148;14.068;2024-01-11T13:18:52;44.50;;;16.73;;
52318;SDS011;38258;51.148;14.068;2024-01-11T13:21:19;44.70;;;16.25;;
52318;SDS011;38258;51.148;14.068;2024-01-11T13:23:45;40.42;;;17.10;;
52318;SDS011;38258;51.148;14.068;2024-01-11T13:26:12;50.65;;;19.67;;
52318;SDS011;38258;51.148;14.068;2024-01-11T13:28:39;41.03;;;17.55;;
52318;SDS011;38258;51.148;14.068;2024-01-11T13:31:05;44.60;;;18.55;;
52318;SDS011;38258;51.148;14.068;2024-01-11T13:33:36;38.58;;;16.67;;
52318;SDS011;38258;51.148;14.068;2024-01-11T13:36:04;40.30;;;16.42;;
52318;SDS011;38258;51.148;14.068;2024-01-11T13:38:32;39.17;;;15.85;;
52318;SDS011;38258;51.148;14.068;2024-01-11T13:40:59;45.63;;;18.10;;
52318;SDS011;38258;51.148;14.068;2024-01-11T13:43:26;48.75;;;18.38;;
52318;SDS011;38258;51.148;14.068;2024-01-11T13:45:53;41.30;;;16.50;;
52318;SDS011;38258;51.148;14.068;2024-01-11T13:48:20;45.13;;;17.83;;
52318;SDS011;38258;51.148;14.068;2024-01-11T13:50:48;46.67;;;17.77;;
52318;SDS011;38258;51.148;14.068;2024-01-11T13:53:15;46.85;;;18.67;;
52318;SDS011;38258;51.148;14.068;2024-01-11T13:55:41;45.20;;;17.10;;
52318;SDS011;38258;51.148;14.068;2024-01-11T13:58:08;49.22;;;19.05;;
52318;SDS011;38258;51.148;14.068;2024-01-11T14:00:37;43.58;;;17.73;;
52318;SDS011;38258;51.148;14.068;2024-01-11T14:03:04;33.10;;;15.77;;
52318;SDS011;38258;51.148;14.068;2024-01-11T14:05:31;42.00;;;16.55;;
52318;SDS011;38258;51.148;14.068;2024-01-11T14:07:58;37.42;;;14.63;;
52318;SDS011;38258;51.148;14.068;2024-01-11T14:10:26;39.80;;;15.52;;
52318;SDS011;38258;51.148;14.068;2024-01-11T14:12:53;40.20;;;16.52;;
52318;SDS011;38258;51.148;14.068;2024-01-11T14:15:20;38.95;;;17.75;;
52318;SDS011;38258;51.148;14.068;2024-01-11T14:17:47;43.63;;;16.92;;